sensor_id;sensor_type;location;lat;lon;timestamp;pressure;altitude;pressure_sealevel;temperature;humidity
58967;BME280;44744;51.894;5.080;2023-01-31T00:00:54;102615.17;;;3.30;77.48
58967;BME280;44744;51.894;5.080;2023-01-31T00:01:54;102614.99;;;3.31;77.75
58967;BME280;44744;51.894;5.080;2023-01-31T00:02:56;102617.62;;;3.32;77.54
58967;BME280;44744;51.894;5.080;2023-01-31T00:03:59;102616.91;;;3.32;77.62
58967;BME280;44744;51.894;5.080;2023-01-31T00:04:59;102615.17;;;3.32;77.67
58967;BME280;44744;51.894;5.080;2023-01-31T00:06:19;102616.56;;;3.31;77.75
58967;BME280;44744;51.894;5.080;2023-01-31T00:07:20;102613.94;;;3.30;77.73
58967;BME280;44744;51.894;5.080;2023-01-31T00:08:20;102613.06;;;3.29;77.67
58967;BME280;44744;51.894;5.080;2023-01-31T00:09:21;102610.61;;;3.30;77.57
58967;BME280;44744;51.894;5.080;2023-01-31T00:10:21;102614.30;;;3.29;77.63
58967;BME280;44744;51.894;5.080;2023-01-31T00:11:23;102614.13;;;3.29;77.63
58967;BME280;44744;51.894;5.080;2023-01-31T00:12:24;102612.89;;;3.28;77.58
58967;BME280;44744;51.894;5.080;2023-01-31T00:13:24;102613.59;;;3.28;77.57
58967;BME280;44744;51.894;5.080;2023-01-31T00:14:24;102616.73;;;3.28;77.60
58967;BME280;44744;51.894;5.080;2023-01-31T00:15:24;102616.89;;;3.27;77.51
58967;BME280;44744;51.894;5.080;2023-01-31T00:16:25;102615.86;;;3.26;77.48
58967;BME280;44744;51.894;5.080;2023-01-31T00:17:27;102610.60;;;3.25;77.45
58967;BME280;44744;51.894;5.080;2023-01-31T00:18:28;102610.60;;;3.24;77.39
58967;BME280;44744;51.894;5.080;2023-01-31T00:19:28;102606.75;;;3.24;77.50
58967;BME280;44744;51.894;5.080;2023-01-31T00:20:29;102598.54;;;3.23;77.69
58967;BME280;44744;51.894;5.080;2023-01-31T00:21:30;102604.48;;;3.23;77.68
58967;BME280;44744;51.894;5.080;2023-01-31T00:22:30;102605.35;;;3.23;77.71
58967;BME280;44744;51.894;5.080;2023-01-31T00:23:30;102610.41;;;3.23;77.73
58967;BME280;44744;51.894;5.080;2023-01-31T00:24:31;102610.95;;;3.23;77.87
58967;BME280;44744;51.894;5.080;2023-01-31T00:25:32;102610.42;;;3.23;77.92
58967;BME280;44744;51.894;5.080;2023-01-31T00:26:33;102609.38;;;3.23;78.09
58967;BME280;44744;51.894;5.080;2023-01-31T00:27:34;102606.23;;;3.23;77.98
58967;BME280;44744;51.894;5.080;2023-01-31T00:28:34;102604.30;;;3.22;77.85
58967;BME280;44744;51.894;5.080;2023-01-31T00:29:34;102605.70;;;3.22;77.88
58967;BME280;44744;51.894;5.080;2023-01-31T00:30:35;102604.12;;;3.21;77.91
58967;BME280;44744;51.894;5.080;2023-01-31T00:31:35;102604.11;;;3.21;77.85
58967;BME280;44744;51.894;5.080;2023-01-31T00:32:35;102604.64;;;3.21;77.86
58967;BME280;44744;51.894;5.080;2023-01-31T00:33:37;102602.88;;;3.20;77.86
58967;BME280;44744;51.894;5.080;2023-01-31T00:34:37;102604.63;;;3.18;77.84
58967;BME280;44744;51.894;5.080;2023-01-31T00:35:38;102603.91;;;3.14;77.83
58967;BME280;44744;51.894;5.080;2023-01-31T00:36:39;102601.45;;;3.12;77.88
58967;BME280;44744;51.894;5.080;2023-01-31T00:37:39;102598.83;;;3.11;77.89
58967;BME280;44744;51.894;5.080;2023-01-31T00:38:40;102596.73;;;3.09;77.90
58967;BME280;44744;51.894;5.080;2023-01-31T00:39:40;102594.27;;;3.08;77.90
58967;BME280;44744;51.894;5.080;2023-01-31T00:40:40;102590.43;;;3.08;77.97
58967;BME280;44744;51.894;5.080;2023-01-31T00:41:40;102589.90;;;3.08;77.96
58967;BME280;44744;51.894;5.080;2023-01-31T00:42:41;102585.52;;;3.07;78.08
58967;BME280;44744;51.894;5.080;2023-01-31T00:43:41;102579.94;;;3.08;78.08
58967;BME280;44744;51.894;5.080;2023-01-31T00:44:41;102582.38;;;3.07;78.05
58967;BME280;44744;51.894;5.080;2023-01-31T00:45:41;102576.95;;;3.07;78.26
58967;BME280;44744;51.894;5.080;2023-01-31T00:46:42;102572.93;;;3.06;78.19
58967;BME280;44744;51.894;5.080;2023-01-31T00:47:42;102566.99;;;3.06;78.36
58967;BME280;44744;51.894;5.080;2023-01-31T00:48:42;102567.52;;;3.05;78.51
58967;BME280;44744;51.894;5.080;2023-01-31T00:49:42;102567.52;;;3.05;78.64
58967;BME280;44744;51.894;5.080;2023-01-31T00:50:43;102560.17;;;3.05;78.63
58967;BME280;44744;51.894;5.080;2023-01-31T00:51:44;102559.30;;;3.06;78.64
58967;BME280;44744;51.894;5.080;2023-01-31T00:52:44;102551.79;;;3.05;78.81
58967;BME280;44744;51.894;5.080;2023-01-31T00:53:45;102554.06;;;3.07;78.85
58967;BME280;44744;51.894;5.080;2023-01-31T00:54:45;102554.23;;;3.07;78.68
58967;BME280;44744;51.894;5.080;2023-01-31T00:55:46;102551.96;;;3.07;78.72
58967;BME280;44744;51.894;5.080;2023-01-31T00:56:46;102546.89;;;3.06;78.75
58967;BME280;44744;51.894;5.080;2023-01-31T00:57:46;102544.10;;;3.06;78.81
58967;BME280;44744;51.894;5.080;2023-01-31T00:58:47;102543.58;;;3.06;78.79
58967;BME280;44744;51.894;5.080;2023-01-31T00:59:47;102542.70;;;3.06;78.75
58967;BME280;44744;51.894;5.080;2023-01-31T01:00:47;102544.80;;;3.07;78.89
58967;BME280;44744;51.894;5.080;2023-01-31T01:01:48;102545.49;;;3.07;79.04
58967;BME280;44744;51.894;5.080;2023-01-31T01:02:48;102540.42;;;3.07;79.09
58967;BME280;44744;51.894;5.080;2023-01-31T01:03:49;102539.39;;;3.08;79.11
58967;BME280;44744;51.894;5.080;2023-01-31T01:04:49;102539.91;;;3.10;79.36
58967;BME280;44744;51.894;5.080;2023-01-31T01:05:49;102542.19;;;3.11;79.37
58967;BME280;44744;51.894;5.080;2023-01-31T01:06:50;102547.96;;;3.11;79.36
58967;BME280;44744;51.894;5.080;2023-01-31T01:07:50;102544.63;;;3.11;79.46
58967;BME280;44744;51.894;5.080;2023-01-31T01:08:51;102541.84;;;3.11;79.53
58967;BME280;44744;51.894;5.080;2023-01-31T01:09:51;102543.77;;;3.12;79.43
58967;BME280;44744;51.894;5.080;2023-01-31T01:10:51;102538.88;;;3.12;79.36
58967;BME280;44744;51.894;5.080;2023-01-31T01:11:52;102537.83;;;3.12;79.76
58967;BME280;44744;51.894;5.080;2023-01-31T01:12:53;102536.42;;;3.12;79.45
58967;BME280;44744;51.894;5.080;2023-01-31T01:13:54;102539.05;;;3.13;79.31
58967;BME280;44744;51.894;5.080;2023-01-31T01:14:55;102540.27;;;3.12;79.46
58967;BME280;44744;51.894;5.080;2023-01-31T01:15:55;102536.95;;;3.12;79.46
58967;BME280;44744;51.894;5.080;2023-01-31T01:16:55;102536.61;;;3.13;79.44
58967;BME280;44744;51.894;5.080;2023-01-31T01:17:55;102538.19;;;3.13;79.52
58967;BME280;44744;51.894;5.080;2023-01-31T01:18:56;102538.17;;;3.13;79.52
58967;BME280;44744;51.894;5.080;2023-01-31T01:19:56;102540.11;;;3.13;79.54
58967;BME280;44744;51.894;5.080;2023-01-31T01:21:17;102540.80;;;3.13;79.52
58967;BME280;44744;51.894;5.080;2023-01-31T01:22:18;102541.32;;;3.13;79.81
58967;BME280;44744;51.894;5.080;2023-01-31T01:23:18;102536.60;;;3.13;79.73
58967;BME280;44744;51.894;5.080;2023-01-31T01:24:20;102538.17;;;3.14;80.04
58967;BME280;44744;51.894;5.080;2023-01-31T01:25:20;102542.03;;;3.15;80.02
58967;BME280;44744;51.894;5.080;2023-01-31T01:26:26;102538.71;;;3.15;80.37
58967;BME280;44744;51.894;5.080;2023-01-31T01:27:27;102535.73;;;3.16;80.27
58967;BME280;44744;51.894;5.080;2023-01-31T01:28:27;102536.61;;;3.17;80.42
58967;BME280;44744;51.894;5.080;2023-01-31T01:29:27;102535.73;;;3.17;80.36
58967;BME280;44744;51.894;5.080;2023-01-31T01:30:28;102536.44;;;3.17;80.24
58967;BME280;44744;51.894;5.080;2023-01-31T01:31:28;102536.10;;;3.18;80.30
58967;BME280;44744;51.894;5.080;2023-01-31T01:32:29;102531.38;;;3.19;80.23
58967;BME280;44744;51.894;5.080;2023-01-31T01:33:30;102529.96;;;3.20;80.22
58967;BME280;44744;51.894;5.080;2023-01-31T01:34:30;102525.08;;;3.19;80.29
58967;BME280;44744;51.894;5.080;2023-01-31T01:35:31;102521.58;;;3.19;80.13
58967;BME280;44744;51.894;5.080;2023-01-31T01:36:36;102521.07;;;3.19;80.35
58967;BME280;44744;51.894;5.080;2023-01-31T01:37:36;102519.30;;;3.20;80.18
58967;BME280;44744;51.894;5.080;2023-01-31T01:38:37;102518.61;;;3.20;80.25
58967;BME280;44744;51.894;5.080;2023-01-31T01:39:37;102517.55;;;3.21;80.40
58967;BME280;44744;51.894;5.080;2023-01-31T01:40:38;102521.05;;;3.21;80.48
58967;BME280;44744;51.894;5.080;2023-01-31T01:41:39;102526.66;;;3.22;80.77
58967;BME280;44744;51.894;5.080;2023-01-31T01:42:39;102523.52;;;3.22;80.61
58967;BME280;44744;51.894;5.080;2023-01-31T01:43:55;102523.33;;;3.22;80.78
58967;BME280;44744;51.894;5.080;2023-01-31T01:44:58;102524.56;;;3.23;80.77
58967;BME280;44744;51.894;5.080;2023-01-31T01:45:58;102526.50;;;3.24;81.14
58967;BME280;44744;51.894;5.080;2023-01-31T01:46:59;102524.73;;;3.25;81.24
58967;BME280;44744;51.894;5.080;2023-01-31T01:48:04;102527.38;;;3.27;81.23
58967;BME280;44744;51.894;5.080;2023-01-31T01:49:30;102522.81;;;3.26;81.02
58967;BME280;44744;51.894;5.080;2023-01-31T01:50:37;102528.42;;;3.27;81.18
58967;BME280;44744;51.894;5.080;2023-01-31T01:51:39;102526.68;;;3.27;81.04
58967;BME280;44744;51.894;5.080;2023-01-31T01:52:46;102528.95;;;3.27;80.95
58967;BME280;44744;51.894;5.080;2023-01-31T01:53:52;102539.62;;;3.26;81.13
58967;BME280;44744;51.894;5.080;2023-01-31T01:55:06;102542.94;;;3.26;80.99
58967;BME280;44744;51.894;5.080;2023-01-31T01:56:14;102545.04;;;3.26;81.14
58967;BME280;44744;51.894;5.080;2023-01-31T01:57:21;102541.01;;;3.26;81.12
58967;BME280;44744;51.894;5.080;2023-01-31T01:59:30;102542.76;;;3.27;81.17
58967;BME280;44744;51.894;5.080;2023-01-31T02:00:24;102539.97;;;3.27;81.19
58967;BME280;44744;51.894;5.080;2023-01-31T02:01:28;102537.52;;;3.27;81.37
58967;BME280;44744;51.894;5.080;2023-01-31T02:02:31;102539.96;;;3.27;81.52
58967;BME280;44744;51.894;5.080;2023-01-31T02:03:31;102541.18;;;3.28;81.43
58967;BME280;44744;51.894;5.080;2023-01-31T02:04:37;102540.14;;;3.29;81.54
58967;BME280;44744;51.894;5.080;2023-01-31T02:05:46;102537.70;;;3.31;81.80
58967;BME280;44744;51.894;5.080;2023-01-31T02:06:49;102540.83;;;3.31;81.95
58967;BME280;44744;51.894;5.080;2023-01-31T02:07:50;102540.14;;;3.32;81.98
58967;BME280;44744;51.894;5.080;2023-01-31T02:08:51;102538.58;;;3.32;81.78
58967;BME280;44744;51.894;5.080;2023-01-31T02:10:02;102535.95;;;3.33;81.83
58967;BME280;44744;51.894;5.080;2023-01-31T02:12:11;102532.98;;;3.34;81.84
58967;BME280;44744;51.894;5.080;2023-01-31T02:13:12;102530.71;;;3.34;81.78
58967;BME280;44744;51.894;5.080;2023-01-31T02:14:14;102533.34;;;3.34;81.64
58967;BME280;44744;51.894;5.080;2023-01-31T02:15:15;102532.81;;;3.34;81.58
58967;BME280;44744;51.894;5.080;2023-01-31T02:16:18;102533.15;;;3.36;81.73
58967;BME280;44744;51.894;5.080;2023-01-31T02:17:19;102534.92;;;3.37;81.77
58967;BME280;44744;51.894;5.080;2023-01-31T02:18:20;102533.86;;;3.38;81.79
58967;BME280;44744;51.894;5.080;2023-01-31T02:22:16;102532.13;;;3.40;81.89
58967;BME280;44744;51.894;5.080;2023-01-31T02:23:42;102527.23;;;3.40;82.01
58967;BME280;44744;51.894;5.080;2023-01-31T02:36:56;102531.95;;;3.41;82.47
58967;BME280;44744;51.894;5.080;2023-01-31T02:38:27;102530.55;;;3.42;82.48
58967;BME280;44744;51.894;5.080;2023-01-31T02:40:53;102530.38;;;3.43;82.52
58967;BME280;44744;51.894;5.080;2023-01-31T02:42:13;102527.58;;;3.45;82.64
58967;BME280;44744;51.894;5.080;2023-01-31T02:43:26;102527.58;;;3.48;82.63
58967;BME280;44744;51.894;5.080;2023-01-31T02:46:01;102525.48;;;3.53;82.98
58967;BME280;44744;51.894;5.080;2023-01-31T02:49:20;102514.13;;;3.56;83.05
58967;BME280;44744;51.894;5.080;2023-01-31T02:51:44;102514.48;;;3.58;83.21
58967;BME280;44744;51.894;5.080;2023-01-31T02:53:03;102512.37;;;3.57;83.14
58967;BME280;44744;51.894;5.080;2023-01-31T02:54:22;102509.75;;;3.58;83.10
58967;BME280;44744;51.894;5.080;2023-01-31T02:55:29;102506.42;;;3.59;83.04
58967;BME280;44744;51.894;5.080;2023-01-31T02:56:33;102513.09;;;3.61;83.20
58967;BME280;44744;51.894;5.080;2023-01-31T02:57:37;102513.95;;;3.62;83.22
58967;BME280;44744;51.894;5.080;2023-01-31T02:58:40;102511.16;;;3.63;83.38
58967;BME280;44744;51.894;5.080;2023-01-31T02:59:41;102510.98;;;3.64;83.28
58967;BME280;44744;51.894;5.080;2023-01-31T03:00:43;102508.89;;;3.66;83.62
58967;BME280;44744;51.894;5.080;2023-01-31T03:01:47;102510.80;;;3.66;83.46
58967;BME280;44744;51.894;5.080;2023-01-31T03:02:49;102511.69;;;3.69;83.80
58967;BME280;44744;51.894;5.080;2023-01-31T03:03:50;102511.86;;;3.69;83.90
58967;BME280;44744;51.894;5.080;2023-01-31T03:04:51;102511.86;;;3.70;83.91
58967;BME280;44744;51.894;5.080;2023-01-31T03:07:22;102511.52;;;3.71;83.96
58967;BME280;44744;51.894;5.080;2023-01-31T03:08:23;102510.81;;;3.72;83.73
58967;BME280;44744;51.894;5.080;2023-01-31T03:10:45;102513.09;;;3.74;83.68
58967;BME280;44744;51.894;5.080;2023-01-31T03:14:51;102510.98;;;3.78;83.78
58967;BME280;44744;51.894;5.080;2023-01-31T03:15:49;102507.31;;;3.79;83.80
58967;BME280;44744;51.894;5.080;2023-01-31T03:17:05;102506.09;;;3.78;83.70
58967;BME280;44744;51.894;5.080;2023-01-31T03:18:14;102505.91;;;3.76;83.65
58967;BME280;44744;51.894;5.080;2023-01-31T03:19:26;102507.83;;;3.77;83.86
58967;BME280;44744;51.894;5.080;2023-01-31T03:21:38;102505.73;;;3.80;84.03
58967;BME280;44744;51.894;5.080;2023-01-31T03:22:45;102504.70;;;3.81;84.13
58967;BME280;44744;51.894;5.080;2023-01-31T03:23:50;102497.17;;;3.82;84.02
58967;BME280;44744;51.894;5.080;2023-01-31T03:24:52;102494.19;;;3.82;84.16
58967;BME280;44744;51.894;5.080;2023-01-31T03:25:55;102490.31;;;3.83;84.30
58967;BME280;44744;51.894;5.080;2023-01-31T03:26:59;102485.95;;;3.83;84.31
58967;BME280;44744;51.894;5.080;2023-01-31T03:28:03;102491.38;;;3.84;84.15
58967;BME280;44744;51.894;5.080;2023-01-31T03:29:05;102488.92;;;3.83;84.17
58967;BME280;44744;51.894;5.080;2023-01-31T03:30:11;102486.99;;;3.84;83.98
58967;BME280;44744;51.894;5.080;2023-01-31T03:31:29;102487.19;;;3.84;84.19
58967;BME280;44744;51.894;5.080;2023-01-31T03:32:35;102491.91;;;3.84;84.02
58967;BME280;44744;51.894;5.080;2023-01-31T03:33:41;102490.16;;;3.85;84.11
58967;BME280;44744;51.894;5.080;2023-01-31T03:34:43;102491.02;;;3.86;84.36
58967;BME280;44744;51.894;5.080;2023-01-31T03:35:51;102493.66;;;3.86;84.20
58967;BME280;44744;51.894;5.080;2023-01-31T03:37:02;102497.85;;;3.87;84.22
58967;BME280;44744;51.894;5.080;2023-01-31T03:38:16;102495.91;;;3.87;84.32
58967;BME280;44744;51.894;5.080;2023-01-31T03:40:25;102488.23;;;3.87;84.60
58967;BME280;44744;51.894;5.080;2023-01-31T03:41:44;102480.88;;;3.89;84.68
58967;BME280;44744;51.894;5.080;2023-01-31T03:43:01;102482.80;;;3.90;84.67
58967;BME280;44744;51.894;5.080;2023-01-31T03:46:06;102486.66;;;3.89;84.66
58967;BME280;44744;51.894;5.080;2023-01-31T03:47:20;102486.65;;;3.89;84.74
58967;BME280;44744;51.894;5.080;2023-01-31T03:48:26;102481.76;;;3.89;84.85
58967;BME280;44744;51.894;5.080;2023-01-31T03:49:30;102480.52;;;3.89;84.59
58967;BME280;44744;51.894;5.080;2023-01-31T03:50:55;102477.89;;;3.89;84.69
58967;BME280;44744;51.894;5.080;2023-01-31T03:52:02;102468.97;;;3.89;84.82
58967;BME280;44744;51.894;5.080;2023-01-31T03:53:11;102464.08;;;3.89;84.59
58967;BME280;44744;51.894;5.080;2023-01-31T03:54:18;102466.52;;;3.90;84.71
58967;BME280;44744;51.894;5.080;2023-01-31T03:55:40;102463.89;;;3.91;84.75
58967;BME280;44744;51.894;5.080;2023-01-31T03:56:45;102461.45;;;3.91;84.69
58967;BME280;44744;51.894;5.080;2023-01-31T03:57:51;102462.31;;;3.90;84.82
58967;BME280;44744;51.894;5.080;2023-01-31T03:58:57;102467.91;;;3.91;85.00
58967;BME280;44744;51.894;5.080;2023-01-31T04:00:00;102468.27;;;3.91;85.17
58967;BME280;44744;51.894;5.080;2023-01-31T04:01:05;102473.34;;;3.92;85.08
58967;BME280;44744;51.894;5.080;2023-01-31T04:02:09;102464.77;;;3.91;85.16
58967;BME280;44744;51.894;5.080;2023-01-31T04:03:17;102465.81;;;3.92;85.07
58967;BME280;44744;51.894;5.080;2023-01-31T04:04:24;102467.58;;;3.92;84.95
58967;BME280;44744;51.894;5.080;2023-01-31T04:05:26;102468.98;;;3.93;85.10
58967;BME280;44744;51.894;5.080;2023-01-31T04:06:26;102464.95;;;3.94;85.02
58967;BME280;44744;51.894;5.080;2023-01-31T04:07:28;102463.89;;;3.95;84.97
58967;BME280;44744;51.894;5.080;2023-01-31T04:08:30;102458.98;;;3.95;84.95
58967;BME280;44744;51.894;5.080;2023-01-31T04:09:31;102460.40;;;3.94;84.67
58967;BME280;44744;51.894;5.080;2023-01-31T04:10:32;102464.24;;;3.93;84.90
58967;BME280;44744;51.894;5.080;2023-01-31T04:11:36;102465.99;;;3.93;84.79
58967;BME280;44744;51.894;5.080;2023-01-31T04:12:38;102465.45;;;3.91;84.86
58967;BME280;44744;51.894;5.080;2023-01-31T04:13:39;102467.75;;;3.90;84.78
58967;BME280;44744;51.894;5.080;2023-01-31T04:14:41;102466.70;;;3.90;84.95
58967;BME280;44744;51.894;5.080;2023-01-31T04:15:41;102465.83;;;3.88;84.90
58967;BME280;44744;51.894;5.080;2023-01-31T04:16:42;102466.88;;;3.86;85.05
58967;BME280;44744;51.894;5.080;2023-01-31T04:17:42;102467.21;;;3.87;85.19
58967;BME280;44744;51.894;5.080;2023-01-31T04:18:42;102460.22;;;3.86;85.07
58967;BME280;44744;51.894;5.080;2023-01-31T04:19:43;102457.95;;;3.85;84.96
58967;BME280;44744;51.894;5.080;2023-01-31T04:20:43;102460.56;;;3.85;85.18
58967;BME280;44744;51.894;5.080;2023-01-31T04:21:43;102460.75;;;3.84;85.33
58967;BME280;44744;51.894;5.080;2023-01-31T04:22:43;102458.65;;;3.83;85.20
58967;BME280;44744;51.894;5.080;2023-01-31T04:23:44;102458.30;;;3.81;85.14
58967;BME280;44744;51.894;5.080;2023-01-31T04:24:44;102460.23;;;3.81;85.13
58967;BME280;44744;51.894;5.080;2023-01-31T04:25:45;102457.60;;;3.81;85.11
58967;BME280;44744;51.894;5.080;2023-01-31T04:26:45;102455.70;;;3.80;85.24
58967;BME280;44744;51.894;5.080;2023-01-31T04:27:45;102450.62;;;3.79;85.07
58967;BME280;44744;51.894;5.080;2023-01-31T04:28:46;102449.73;;;3.77;84.94
58967;BME280;44744;51.894;5.080;2023-01-31T04:29:46;102452.88;;;3.77;84.93
58967;BME280;44744;51.894;5.080;2023-01-31T04:30:51;102446.94;;;3.76;84.92
58967;BME280;44744;51.894;5.080;2023-01-31T04:31:52;102449.04;;;3.74;85.14
58967;BME280;44744;51.894;5.080;2023-01-31T04:32:52;102448.16;;;3.73;85.02
58967;BME280;44744;51.894;5.080;2023-01-31T04:33:52;102453.06;;;3.73;85.21
58967;BME280;44744;51.894;5.080;2023-01-31T04:34:52;102453.06;;;3.74;85.27
58967;BME280;44744;51.894;5.080;2023-01-31T04:35:53;102449.56;;;3.73;85.22
58967;BME280;44744;51.894;5.080;2023-01-31T04:36:53;102449.21;;;3.73;85.57
58967;BME280;44744;51.894;5.080;2023-01-31T04:37:53;102444.66;;;3.73;85.46
58967;BME280;44744;51.894;5.080;2023-01-31T04:38:54;102446.06;;;3.73;85.42
58967;BME280;44744;51.894;5.080;2023-01-31T04:39:54;102442.21;;;3.73;85.73
58967;BME280;44744;51.894;5.080;2023-01-31T04:40:54;102438.19;;;3.74;85.49
58967;BME280;44744;51.894;5.080;2023-01-31T04:41:55;102432.77;;;3.74;85.66
58967;BME280;44744;51.894;5.080;2023-01-31T04:42:55;102432.41;;;3.75;85.72
58967;BME280;44744;51.894;5.080;2023-01-31T04:43:55;102431.19;;;3.77;85.61
58967;BME280;44744;51.894;5.080;2023-01-31T04:44:56;102434.67;;;3.76;85.53
58967;BME280;44744;51.894;5.080;2023-01-31T04:45:56;102436.44;;;3.76;85.62
58967;BME280;44744;51.894;5.080;2023-01-31T04:46:56;102436.09;;;3.76;85.57
58967;BME280;44744;51.894;5.080;2023-01-31T04:47:56;102430.66;;;3.75;85.59
58967;BME280;44744;51.894;5.080;2023-01-31T04:48:57;102431.01;;;3.76;85.48
58967;BME280;44744;51.894;5.080;2023-01-31T04:49:57;102429.09;;;3.75;85.48
58967;BME280;44744;51.894;5.080;2023-01-31T04:50:57;102423.32;;;3.75;85.70
58967;BME280;44744;51.894;5.080;2023-01-31T04:51:58;102425.59;;;3.76;85.45
58967;BME280;44744;51.894;5.080;2023-01-31T04:52:58;102425.76;;;3.78;85.67
58967;BME280;44744;51.894;5.080;2023-01-31T04:53:59;102429.95;;;3.78;85.74
58967;BME280;44744;51.894;5.080;2023-01-31T04:55:00;102430.67;;;3.79;85.80
58967;BME280;44744;51.894;5.080;2023-01-31T04:56:00;102429.80;;;3.80;85.63
58967;BME280;44744;51.894;5.080;2023-01-31T04:57:01;102433.11;;;3.81;85.74
58967;BME280;44744;51.894;5.080;2023-01-31T04:58:02;102435.72;;;3.82;85.88
58967;BME280;44744;51.894;5.080;2023-01-31T04:59:02;102439.92;;;3.83;85.89
58967;BME280;44744;51.894;5.080;2023-01-31T05:00:03;102437.11;;;3.84;85.92
58967;BME280;44744;51.894;5.080;2023-01-31T05:01:04;102437.30;;;3.84;85.82
58967;BME280;44744;51.894;5.080;2023-01-31T05:02:08;102438.00;;;3.85;85.96
58967;BME280;44744;51.894;5.080;2023-01-31T05:03:08;102435.90;;;3.85;85.94
58967;BME280;44744;51.894;5.080;2023-01-31T05:04:09;102432.23;;;3.85;86.00
58967;BME280;44744;51.894;5.080;2023-01-31T05:05:09;102430.11;;;3.84;85.88
58967;BME280;44744;51.894;5.080;2023-01-31T05:06:09;102423.64;;;3.83;85.74
58967;BME280;44744;51.894;5.080;2023-01-31T05:07:10;102417.87;;;3.83;85.76
58967;BME280;44744;51.894;5.080;2023-01-31T05:08:10;102420.14;;;3.84;85.74
58967;BME280;44744;51.894;5.080;2023-01-31T05:09:10;102420.67;;;3.84;85.93
58967;BME280;44744;51.894;5.080;2023-01-31T05:10:11;102418.05;;;3.84;85.90
58967;BME280;44744;51.894;5.080;2023-01-31T05:11:11;102414.20;;;3.84;85.97
58967;BME280;44744;51.894;5.080;2023-01-31T05:12:11;102414.20;;;3.86;85.86
58967;BME280;44744;51.894;5.080;2023-01-31T05:13:12;102408.25;;;3.86;86.01
58967;BME280;44744;51.894;5.080;2023-01-31T05:14:12;102406.33;;;3.85;86.03
58967;BME280;44744;51.894;5.080;2023-01-31T05:15:12;102408.24;;;3.86;86.02
58967;BME280;44744;51.894;5.080;2023-01-31T05:16:12;102408.42;;;3.87;85.99
58967;BME280;44744;51.894;5.080;2023-01-31T05:17:13;102408.08;;;3.87;86.11
58967;BME280;44744;51.894;5.080;2023-01-31T05:18:13;102411.92;;;3.89;86.22
58967;BME280;44744;51.894;5.080;2023-01-31T05:19:14;102413.48;;;3.90;86.20
58967;BME280;44744;51.894;5.080;2023-01-31T05:20:15;102415.24;;;3.90;86.01
58967;BME280;44744;51.894;5.080;2023-01-31T05:21:15;102418.92;;;3.89;86.03
58967;BME280;44744;51.894;5.080;2023-01-31T05:22:16;102412.09;;;3.89;85.97
58967;BME280;44744;51.894;5.080;2023-01-31T05:23:17;102411.56;;;3.89;86.01
58967;BME280;44744;51.894;5.080;2023-01-31T05:24:17;102412.09;;;3.90;85.99
58967;BME280;44744;51.894;5.080;2023-01-31T05:25:17;102413.30;;;3.90;86.01
58967;BME280;44744;51.894;5.080;2023-01-31T05:26:18;102413.13;;;3.91;85.97
58967;BME280;44744;51.894;5.080;2023-01-31T05:27:18;102406.83;;;3.92;85.90
58967;BME280;44744;51.894;5.080;2023-01-31T05:28:18;102403.15;;;3.92;85.94
58967;BME280;44744;51.894;5.080;2023-01-31T05:29:19;102396.50;;;3.93;85.85
58967;BME280;44744;51.894;5.080;2023-01-31T05:30:19;102393.88;;;3.94;86.04
58967;BME280;44744;51.894;5.080;2023-01-31T05:31:19;102393.35;;;3.95;86.09
58967;BME280;44744;51.894;5.080;2023-01-31T05:32:20;102393.16;;;3.97;86.14
58967;BME280;44744;51.894;5.080;2023-01-31T05:33:20;102397.55;;;3.97;86.11
58967;BME280;44744;51.894;5.080;2023-01-31T05:34:21;102402.27;;;3.96;86.08
58967;BME280;44744;51.894;5.080;2023-01-31T05:35:22;102399.29;;;3.96;85.99
58967;BME280;44744;51.894;5.080;2023-01-31T05:36:22;102402.78;;;3.97;86.24
58967;BME280;44744;51.894;5.080;2023-01-31T05:37:40;102401.91;;;3.97;86.12
58967;BME280;44744;51.894;5.080;2023-01-31T05:38:41;102398.41;;;3.96;86.24
58967;BME280;44744;51.894;5.080;2023-01-31T05:39:41;102397.02;;;3.96;86.18
58967;BME280;44744;51.894;5.080;2023-01-31T05:40:41;102393.17;;;3.95;86.11
58967;BME280;44744;51.894;5.080;2023-01-31T05:41:42;102395.44;;;3.95;86.16
58967;BME280;44744;51.894;5.080;2023-01-31T05:42:43;102395.63;;;3.94;85.94
58967;BME280;44744;51.894;5.080;2023-01-31T05:43:43;102391.77;;;3.94;86.00
58967;BME280;44744;51.894;5.080;2023-01-31T05:44:43;102397.38;;;3.94;85.86
58967;BME280;44744;51.894;5.080;2023-01-31T05:45:44;102399.83;;;3.95;85.75
58967;BME280;44744;51.894;5.080;2023-01-31T05:46:44;102402.80;;;3.96;85.92
58967;BME280;44744;51.894;5.080;2023-01-31T05:47:46;102399.83;;;3.98;86.09
58967;BME280;44744;51.894;5.080;2023-01-31T05:48:46;102399.81;;;3.99;86.09
58967;BME280;44744;51.894;5.080;2023-01-31T05:49:47;102398.58;;;4.00;86.18
58967;BME280;44744;51.894;5.080;2023-01-31T05:50:48;102400.86;;;4.01;86.20
58967;BME280;44744;51.894;5.080;2023-01-31T05:51:48;102396.48;;;4.01;86.11
58967;BME280;44744;51.894;5.080;2023-01-31T05:52:53;102396.64;;;4.02;86.41
58967;BME280;44744;51.894;5.080;2023-01-31T05:53:56;102393.33;;;4.00;86.29
58967;BME280;44744;51.894;5.080;2023-01-31T05:54:56;102394.38;;;4.01;86.25
58967;BME280;44744;51.894;5.080;2023-01-31T05:55:56;102394.90;;;4.00;86.20
58967;BME280;44744;51.894;5.080;2023-01-31T05:56:57;102396.30;;;3.99;86.28
58967;BME280;44744;51.894;5.080;2023-01-31T05:57:57;102393.32;;;4.00;86.22
58967;BME280;44744;51.894;5.080;2023-01-31T05:58:57;102394.38;;;4.00;86.28
58967;BME280;44744;51.894;5.080;2023-01-31T06:00:10;102393.67;;;4.00;86.10
58967;BME280;44744;51.894;5.080;2023-01-31T06:01:10;102392.98;;;3.99;86.20
58967;BME280;44744;51.894;5.080;2023-01-31T06:02:11;102395.61;;;3.97;86.09
58967;BME280;44744;51.894;5.080;2023-01-31T06:03:11;102388.80;;;3.98;86.33
58967;BME280;44744;51.894;5.080;2023-01-31T06:04:11;102392.98;;;3.99;86.27
58967;BME280;44744;51.894;5.080;2023-01-31T06:05:12;102388.78;;;4.00;86.25
58967;BME280;44744;51.894;5.080;2023-01-31T06:06:13;102392.45;;;4.01;86.36